sensor_id;sensor_type;location;lat;lon;timestamp;pressure;altitude;pressure_sealevel;temperature;humidity
76519;BME280;67029;51.054;13.798;2023-07-24T00:00:43;99550.69;;;25.31;35.64
76519;BME280;67029;51.054;13.798;2023-07-24T00:03:13;99553.16;;;25.35;35.61
76519;BME280;67029;51.054;13.798;2023-07-24T00:05:43;99552.91;;;25.38;35.52
76519;BME280;67029;51.054;13.798;2023-07-24T00:08:13;99548.02;;;25.32;35.66
76519;BME280;67029;51.054;13.798;2023-07-24T00:10:43;99540.83;;;25.30;35.69
76519;BME280;67029;51.054;13.798;2023-07-24T00:13:13;99537.71;;;25.30;35.69
76519;BME280;67029;51.054;13.798;2023-07-24T00:15:43;99536.91;;;25.28;35.76
76519;BME280;67029;51.054;13.798;2023-07-24T00:18:13;99541.53;;;25.26;35.78
76519;BME280;67029;51.054;13.798;2023-07-24T00:20:43;99535.78;;;25.20;35.88
76519;BME280;67029;51.054;13.798;2023-07-24T00:23:13;99540.09;;;25.19;35.93
76519;BME280;67029;51.054;13.798;2023-07-24T00:25:43;99538.66;;;25.17;35.95
76519;BME280;67029;51.054;13.798;2023-07-24T00:28:13;99530.17;;;25.16;36.01
76519;BME280;67029;51.054;13.798;2023-07-24T00:30:43;99523.78;;;25.12;36.07
76519;BME280;67029;51.054;13.798;2023-07-24T00:33:13;99517.67;;;25.11;36.14
76519;BME280;67029;51.054;13.798;2023-07-24T00:35:43;99517.21;;;25.09;36.21
76519;BME280;67029;51.054;13.798;2023-07-24T00:38:13;99508.52;;;25.10;36.26
76519;BME280;67029;51.054;13.798;2023-07-24T00:40:43;99508.64;;;25.10;36.27
76519;BME280;67029;51.054;13.798;2023-07-24T00:43:13;99504.42;;;25.09;36.31
76519;BME280;67029;51.054;13.798;2023-07-24T00:45:45;99506.44;;;25.10;36.37
76519;BME280;67029;51.054;13.798;2023-07-24T00:48:14;99508.07;;;25.09;36.43
76519;BME280;67029;51.054;13.798;2023-07-24T00:50:45;99509.22;;;25.08;36.48
76519;BME280;67029;51.054;13.798;2023-07-24T00:53:16;99505.30;;;25.06;36.60
76519;BME280;67029;51.054;13.798;2023-07-24T00:55:45;99510.50;;;25.03;36.74
76519;BME280;67029;51.054;13.798;2023-07-24T00:58:16;99515.95;;;25.01;36.82
76519;BME280;67029;51.054;13.798;2023-07-24T01:00:46;99512.70;;;24.98;36.92
76519;BME280;67029;51.054;13.798;2023-07-24T01:03:16;99506.98;;;24.99;36.97
76519;BME280;67029;51.054;13.798;2023-07-24T01:05:46;99505.08;;;24.97;37.04
76519;BME280;67029;51.054;13.798;2023-07-24T01:08:17;99505.73;;;24.92;37.15
76519;BME280;67029;51.054;13.798;2023-07-24T01:10:47;99501.42;;;24.90;37.17
76519;BME280;67029;51.054;13.798;2023-07-24T01:13:24;99501.63;;;24.90;37.21
76519;BME280;67029;51.054;13.798;2023-07-24T01:16:03;99501.75;;;24.88;37.28
76519;BME280;67029;51.054;13.798;2023-07-24T01:18:17;99502.73;;;24.87;37.32
76519;BME280;67029;51.054;13.798;2023-07-24T01:20:51;99504.36;;;24.86;37.35
76519;BME280;67029;51.054;13.798;2023-07-24T01:25:58;99504.76;;;24.82;37.49
76519;BME280;67029;51.054;13.798;2023-07-24T01:28:18;99502.88;;;24.80;37.55
76519;BME280;67029;51.054;13.798;2023-07-24T01:30:48;99501.26;;;24.77;37.64
76519;BME280;67029;51.054;13.798;2023-07-24T01:33:18;99492.69;;;24.76;37.75
76519;BME280;67029;51.054;13.798;2023-07-24T01:35:49;99491.58;;;24.75;37.77
76519;BME280;67029;51.054;13.798;2023-07-24T01:38:21;99489.98;;;24.73;37.87
76519;BME280;67029;51.054;13.798;2023-07-24T01:40:51;99489.28;;;24.74;37.93
76519;BME280;67029;51.054;13.798;2023-07-24T01:43:20;99486.69;;;24.72;37.95
76519;BME280;67029;51.054;13.798;2023-07-24T01:45:50;99487.73;;;24.70;38.08
76519;BME280;67029;51.054;13.798;2023-07-24T01:48:20;99489.01;;;24.69;38.06
76519;BME280;67029;51.054;13.798;2023-07-24T01:50:50;99480.98;;;24.67;38.13
76519;BME280;67029;51.054;13.798;2023-07-24T01:53:20;99476.15;;;24.65;38.17
76519;BME280;67029;51.054;13.798;2023-07-24T01:55:50;99472.00;;;24.67;38.16
76519;BME280;67029;51.054;13.798;2023-07-24T01:58:20;99465.39;;;24.66;38.23
76519;BME280;67029;51.054;13.798;2023-07-24T02:00:50;99466.02;;;24.66;38.23
76519;BME280;67029;51.054;13.798;2023-07-24T02:03:20;99465.67;;;24.66;38.30
76519;BME280;67029;51.054;13.798;2023-07-24T02:05:51;99463.03;;;24.67;38.29
76519;BME280;67029;51.054;13.798;2023-07-24T02:08:20;99461.25;;;24.69;38.26
76519;BME280;67029;51.054;13.798;2023-07-24T02:10:50;99457.66;;;24.65;38.33
76519;BME280;67029;51.054;13.798;2023-07-24T02:13:20;99459.64;;;24.62;38.40
76519;BME280;67029;51.054;13.798;2023-07-24T02:15:51;99462.88;;;24.63;38.43
76519;BME280;67029;51.054;13.798;2023-07-24T02:18:21;99461.55;;;24.61;38.46
76519;BME280;67029;51.054;13.798;2023-07-24T02:20:51;99461.81;;;24.59;38.65
76519;BME280;67029;51.054;13.798;2023-07-24T02:23:21;99462.98;;;24.56;38.61
76519;BME280;67029;51.054;13.798;2023-07-24T02:25:51;99462.39;;;24.59;38.56
76519;BME280;67029;51.054;13.798;2023-07-24T02:28:21;99467.52;;;24.62;38.49
76519;BME280;67029;51.054;13.798;2023-07-24T02:30:52;99467.80;;;24.66;38.44
76519;BME280;67029;51.054;13.798;2023-07-24T02:33:22;99466.64;;;24.69;38.37
76519;BME280;67029;51.054;13.798;2023-07-24T02:35:52;99463.79;;;24.65;38.46
76519;BME280;67029;51.054;13.798;2023-07-24T02:38:22;99463.05;;;24.55;38.64
76519;BME280;67029;51.054;13.798;2023-07-24T02:40:52;99465.92;;;24.52;38.77
76519;BME280;67029;51.054;13.798;2023-07-24T02:43:22;99465.87;;;24.52;38.75
76519;BME280;67029;51.054;13.798;2023-07-24T02:45:52;99463.56;;;24.55;38.73
76519;BME280;67029;51.054;13.798;2023-07-24T02:48:22;99461.99;;;24.57;38.75
76519;BME280;67029;51.054;13.798;2023-07-24T02:50:52;99461.81;;;24.57;38.74
76519;BME280;67029;51.054;13.798;2023-07-24T02:53:22;99460.45;;;24.58;38.77
76519;BME280;67029;51.054;13.798;2023-07-24T02:55:52;99459.30;;;24.53;38.87
76519;BME280;67029;51.054;13.798;2023-07-24T02:58:22;99457.40;;;24.56;38.81
76519;BME280;67029;51.054;13.798;2023-07-24T03:00:52;99460.34;;;24.56;38.86
76519;BME280;67029;51.054;13.798;2023-07-24T03:03:22;99465.84;;;24.62;38.81
76519;BME280;67029;51.054;13.798;2023-07-24T03:05:52;99464.14;;;24.59;38.87
76519;BME280;67029;51.054;13.798;2023-07-24T03:08:22;99464.41;;;24.59;38.87
76519;BME280;67029;51.054;13.798;2023-07-24T03:10:52;99464.66;;;24.65;38.80
76519;BME280;67029;51.054;13.798;2023-07-24T03:13:22;99462.91;;;24.68;38.71
76519;BME280;67029;51.054;13.798;2023-07-24T03:15:53;99461.12;;;24.71;38.68
76519;BME280;67029;51.054;13.798;2023-07-24T03:18:23;99464.28;;;24.72;38.70
76519;BME280;67029;51.054;13.798;2023-07-24T03:20:53;99464.12;;;24.71;38.74
76519;BME280;67029;51.054;13.798;2023-07-24T03:23:23;99465.27;;;24.73;38.74
76519;BME280;67029;51.054;13.798;2023-07-24T03:25:53;99461.36;;;24.73;38.75
76519;BME280;67029;51.054;13.798;2023-07-24T03:28:23;99448.92;;;24.73;38.82
76519;BME280;67029;51.054;13.798;2023-07-24T03:30:53;99452.95;;;24.76;38.80
76519;BME280;67029;51.054;13.798;2023-07-24T03:33:23;99458.83;;;24.76;38.84
76519;BME280;67029;51.054;13.798;2023-07-24T03:35:53;99453.41;;;24.77;38.83
76519;BME280;67029;51.054;13.798;2023-07-24T03:38:23;99453.06;;;24.75;38.88
76519;BME280;67029;51.054;13.798;2023-07-24T03:40:53;99446.44;;;24.77;38.84
76519;BME280;67029;51.054;13.798;2023-07-24T03:43:23;99442.03;;;24.80;38.85
76519;BME280;67029;51.054;13.798;2023-07-24T03:45:53;99440.55;;;24.79;38.91
76519;BME280;67029;51.054;13.798;2023-07-24T03:48:23;99438.66;;;24.79;38.92
76519;BME280;67029;51.054;13.798;2023-07-24T03:50:59;99440.38;;;24.81;38.90
76519;BME280;67029;51.054;13.798;2023-07-24T03:53:23;99439.09;;;24.84;38.89
76519;BME280;67029;51.054;13.798;2023-07-24T03:55:54;99436.33;;;24.88;38.83
76519;BME280;67029;51.054;13.798;2023-07-24T03:58:24;99428.02;;;24.88;38.84
76519;BME280;67029;51.054;13.798;2023-07-24T04:00:54;99423.42;;;24.87;38.88
76519;BME280;67029;51.054;13.798;2023-07-24T04:03:24;99417.02;;;24.89;38.89
76519;BME280;67029;51.054;13.798;2023-07-24T04:05:54;99415.24;;;24.90;38.94
76519;BME280;67029;51.054;13.798;2023-07-24T04:08:24;99412.73;;;24.92;38.93
76519;BME280;67029;51.054;13.798;2023-07-24T04:10:54;99403.59;;;24.92;39.01
76519;BME280;67029;51.054;13.798;2023-07-24T04:13:24;99403.52;;;24.95;39.03
76519;BME280;67029;51.054;13.798;2023-07-24T04:15:54;99400.08;;;24.96;39.08
76519;BME280;67029;51.054;13.798;2023-07-24T04:18:24;99400.23;;;24.98;39.07
76519;BME280;67029;51.054;13.798;2023-07-24T04:20:55;99401.09;;;24.95;39.11
76519;BME280;67029;51.054;13.798;2023-07-24T04:23:24;99399.30;;;24.84;39.38
76519;BME280;67029;51.054;13.798;2023-07-24T04:25:54;99400.33;;;24.86;39.38
76519;BME280;67029;51.054;13.798;2023-07-24T04:28:24;99399.00;;;24.85;39.40
76519;BME280;67029;51.054;13.798;2023-07-24T04:31:00;99395.83;;;24.84;39.43
76519;BME280;67029;51.054;13.798;2023-07-24T04:33:25;99396.78;;;24.74;39.92
76519;BME280;67029;51.054;13.798;2023-07-24T04:35:55;99394.98;;;24.63;40.07
76519;BME280;67029;51.054;13.798;2023-07-24T04:38:42;99399.64;;;24.67;40.05
76519;BME280;67029;51.054;13.798;2023-07-24T04:40:55;99395.11;;;24.72;39.96
76519;BME280;67029;51.054;13.798;2023-07-24T04:43:25;99393.22;;;24.75;40.05
76519;BME280;67029;51.054;13.798;2023-07-24T04:45:55;99392.55;;;24.65;40.56
76519;BME280;67029;51.054;13.798;2023-07-24T04:48:25;99398.56;;;24.56;40.66
76519;BME280;67029;51.054;13.798;2023-07-24T04:50:56;99396.03;;;24.50;41.08
76519;BME280;67029;51.054;13.798;2023-07-24T04:53:26;99398.78;;;24.44;40.99
76519;BME280;67029;51.054;13.798;2023-07-24T04:56:02;99395.99;;;24.49;41.03
76519;BME280;67029;51.054;13.798;2023-07-24T04:58:27;99397.62;;;24.55;40.94
76519;BME280;67029;51.054;13.798;2023-07-24T05:01:02;99387.94;;;24.66;40.81
76519;BME280;67029;51.054;13.798;2023-07-24T05:03:27;99390.08;;;24.83;40.57
76519;BME280;67029;51.054;13.798;2023-07-24T05:05:57;99387.25;;;24.82;40.58
76519;BME280;67029;51.054;13.798;2023-07-24T05:08:27;99382.73;;;24.91;40.43
76519;BME280;67029;51.054;13.798;2023-07-24T05:10:57;99383.49;;;25.03;40.25
76519;BME280;67029;51.054;13.798;2023-07-24T05:13:31;99385.66;;;25.13;40.16
76519;BME280;67029;51.054;13.798;2023-07-24T05:16:04;99380.06;;;25.21;40.20
76519;BME280;67029;51.054;13.798;2023-07-24T05:18:32;99374.94;;;25.28;40.13
76519;BME280;67029;51.054;13.798;2023-07-24T05:21:00;99370.86;;;25.36;40.09
76519;BME280;67029;51.054;13.798;2023-07-24T05:23:30;99368.29;;;25.43;40.02
76519;BME280;67029;51.054;13.798;2023-07-24T05:26:01;99371.49;;;25.47;40.01
76519;BME280;67029;51.054;13.798;2023-07-24T05:28:32;99365.03;;;25.50;39.97
76519;BME280;67029;51.054;13.798;2023-07-24T05:31:02;99367.99;;;25.45;40.17
76519;BME280;67029;51.054;13.798;2023-07-24T05:33:32;99375.28;;;25.42;40.32
76519;BME280;67029;51.054;13.798;2023-07-24T05:36:03;99378.28;;;25.48;40.42
76519;BME280;67029;51.054;13.798;2023-07-24T05:38:32;99377.70;;;25.52;40.25
76519;BME280;67029;51.054;13.798;2023-07-24T05:41:03;99379.07;;;25.61;40.12
76519;BME280;67029;51.054;13.798;2023-07-24T05:43:33;99370.34;;;25.72;40.00
76519;BME280;67029;51.054;13.798;2023-07-24T05:46:03;99368.33;;;25.80;39.86
76519;BME280;67029;51.054;13.798;2023-07-24T05:48:33;99366.89;;;25.80;39.93
76519;BME280;67029;51.054;13.798;2023-07-24T05:51:03;99374.70;;;25.84;39.90
76519;BME280;67029;51.054;13.798;2023-07-24T05:53:33;99369.20;;;25.86;39.93
76519;BME280;67029;51.054;13.798;2023-07-24T05:56:03;99360.83;;;25.94;39.88
76519;BME280;67029;51.054;13.798;2023-07-24T05:58:33;99363.33;;;26.03;39.78
76519;BME280;67029;51.054;13.798;2023-07-24T06:01:03;99368.14;;;26.07;39.78
76519;BME280;67029;51.054;13.798;2023-07-24T06:03:33;99366.52;;;26.16;39.68
76519;BME280;67029;51.054;13.798;2023-07-24T06:06:03;99367.48;;;26.12;39.77
76519;BME280;67029;51.054;13.798;2023-07-24T06:08:33;99363.03;;;26.13;39.79
76519;BME280;67029;51.054;13.798;2023-07-24T06:11:03;99364.14;;;26.15;39.78
76519;BME280;67029;51.054;13.798;2023-07-24T06:13:33;99359.69;;;26.24;39.67
76519;BME280;67029;51.054;13.798;2023-07-24T06:16:03;99364.32;;;26.21;39.71
76519;BME280;67029;51.054;13.798;2023-07-24T06:18:34;99363.15;;;26.30;39.66
76519;BME280;67029;51.054;13.798;2023-07-24T06:21:03;99359.50;;;26.44;39.54
76519;BME280;67029;51.054;13.798;2023-07-24T06:23:33;99357.21;;;26.48;39.53
76519;BME280;67029;51.054;13.798;2023-07-24T06:26:03;99357.17;;;26.45;39.56
76519;BME280;67029;51.054;13.798;2023-07-24T06:28:34;99356.94;;;26.45;39.61
76519;BME280;67029;51.054;13.798;2023-07-24T06:31:03;99360.11;;;26.50;39.61
76519;BME280;67029;51.054;13.798;2023-07-24T06:33:34;99365.58;;;26.60;39.50
76519;BME280;67029;51.054;13.798;2023-07-24T06:36:04;99361.50;;;26.69;39.28
76519;BME280;67029;51.054;13.798;2023-07-24T06:38:34;99354.99;;;26.78;39.06
76519;BME280;67029;51.054;13.798;2023-07-24T06:41:04;99355.53;;;26.86;38.82
76519;BME280;67029;51.054;13.798;2023-07-24T06:43:34;99359.09;;;26.92;38.69
76519;BME280;67029;51.054;13.798;2023-07-24T06:46:04;99361.05;;;27.04;38.50
76519;BME280;67029;51.054;13.798;2023-07-24T06:48:34;99363.14;;;27.19;38.25
76519;BME280;67029;51.054;13.798;2023-07-24T06:51:04;99360.92;;;27.35;38.06
76519;BME280;67029;51.054;13.798;2023-07-24T06:53:34;99362.25;;;27.37;38.03
76519;BME280;67029;51.054;13.798;2023-07-24T06:56:04;99363.35;;;27.49;37.82
76519;BME280;67029;51.054;13.798;2023-07-24T06:58:34;99357.51;;;27.48;37.85
76519;BME280;67029;51.054;13.798;2023-07-24T07:01:07;99354.59;;;27.47;37.87
76519;BME280;67029;51.054;13.798;2023-07-24T07:03:34;99352.81;;;27.61;37.78
76519;BME280;67029;51.054;13.798;2023-07-24T07:06:04;99350.08;;;27.74;37.67
76519;BME280;67029;51.054;13.798;2023-07-24T07:08:34;99347.53;;;27.87;37.57
76519;BME280;67029;51.054;13.798;2023-07-24T07:11:04;99345.55;;;28.05;37.43
76519;BME280;67029;51.054;13.798;2023-07-24T07:13:34;99349.23;;;28.20;37.29
76519;BME280;67029;51.054;13.798;2023-07-24T07:16:04;99343.89;;;28.29;37.18
76519;BME280;67029;51.054;13.798;2023-07-24T07:18:34;99349.03;;;28.46;37.05
76519;BME280;67029;51.054;13.798;2023-07-24T07:21:04;99350.73;;;28.66;36.87
76519;BME280;67029;51.054;13.798;2023-07-24T07:23:34;99346.76;;;28.81;36.76
76519;BME280;67029;51.054;13.798;2023-07-24T07:26:04;99346.19;;;28.92;36.49
76519;BME280;67029;51.054;13.798;2023-07-24T07:28:34;99341.77;;;28.95;36.13
76519;BME280;67029;51.054;13.798;2023-07-24T07:31:07;99338.72;;;29.03;35.78
76519;BME280;67029;51.054;13.798;2023-07-24T07:33:37;99339.39;;;29.10;35.41
76519;BME280;67029;51.054;13.798;2023-07-24T07:36:06;99334.98;;;29.18;35.12
76519;BME280;67029;51.054;13.798;2023-07-24T07:38:36;99334.22;;;29.30;35.02
76519;BME280;67029;51.054;13.798;2023-07-24T07:41:06;99326.75;;;29.42;34.58
76519;BME280;67029;51.054;13.798;2023-07-24T07:43:36;99326.67;;;29.48;34.33
76519;BME280;67029;51.054;13.798;2023-07-24T07:46:06;99329.86;;;29.48;34.13
76519;BME280;67029;51.054;13.798;2023-07-24T07:48:36;99323.45;;;29.47;34.02
76519;BME280;67029;51.054;13.798;2023-07-24T07:51:06;99322.75;;;29.56;34.04
76519;BME280;67029;51.054;13.798;2023-07-24T07:53:37;99315.03;;;29.68;33.75
76519;BME280;67029;51.054;13.798;2023-07-24T07:56:07;99304.69;;;29.73;33.67
76519;BME280;67029;51.054;13.798;2023-07-24T07:58:37;99285.30;;;29.76;33.38
76519;BME280;67029;51.054;13.798;2023-07-24T08:01:07;99278.92;;;29.80;33.37
76519;BME280;67029;51.054;13.798;2023-07-24T08:03:37;99278.38;;;29.89;33.33
76519;BME280;67029;51.054;13.798;2023-07-24T08:06:07;99283.09;;;30.00;33.17
76519;BME280;67029;51.054;13.798;2023-07-24T08:08:37;99289.16;;;30.17;33.07
76519;BME280;67029;51.054;13.798;2023-07-24T08:11:07;99285.77;;;30.34;32.80
76519;BME280;67029;51.054;13.798;2023-07-24T08:13:37;99278.23;;;30.53;32.65
76519;BME280;67029;51.054;13.798;2023-07-24T08:16:16;99276.36;;;30.76;32.28
76519;BME280;67029;51.054;13.798;2023-07-24T08:18:38;99274.42;;;30.94;31.81
76519;BME280;67029;51.054;13.798;2023-07-24T08:21:08;99275.70;;;31.16;31.74
76519;BME280;67029;51.054;13.798;2023-07-24T08:23:38;99275.62;;;31.41;31.05
76519;BME280;67029;51.054;13.798;2023-07-24T08:26:08;99270.89;;;31.49;31.06
76519;BME280;67029;51.054;13.798;2023-07-24T08:28:38;99264.10;;;31.70;30.81
76519;BME280;67029;51.054;13.798;2023-07-24T08:31:08;99264.59;;;31.97;30.86
76519;BME280;67029;51.054;13.798;2023-07-24T08:33:38;99266.08;;;32.28;30.79
76519;BME280;67029;51.054;13.798;2023-07-24T08:36:08;99256.66;;;32.61;30.50
76519;BME280;67029;51.054;13.798;2023-07-24T08:38:40;99254.31;;;32.88;29.86
76519;BME280;67029;51.054;13.798;2023-07-24T08:41:10;99240.42;;;33.12;29.80
76519;BME280;67029;51.054;13.798;2023-07-24T08:43:41;99238.75;;;33.28;29.41
76519;BME280;67029;51.054;13.798;2023-07-24T08:46:10;99240.59;;;33.26;28.32
76519;BME280;67029;51.054;13.798;2023-07-24T08:48:41;99232.70;;;33.32;28.64
76519;BME280;67029;51.054;13.798;2023-07-24T08:51:12;99227.55;;;33.46;28.49
76519;BME280;67029;51.054;13.798;2023-07-24T08:53:42;99232.55;;;33.71;28.55
76519;BME280;67029;51.054;13.798;2023-07-24T08:56:12;99232.20;;;34.06;28.37
76519;BME280;67029;51.054;13.798;2023-07-24T08:58:42;99231.50;;;34.39;28.21
76519;BME280;67029;51.054;13.798;2023-07-24T09:01:12;99223.87;;;34.69;28.01
76519;BME280;67029;51.054;13.798;2023-07-24T09:03:42;99224.50;;;34.91;27.66
76519;BME280;67029;51.054;13.798;2023-07-24T09:06:12;99222.66;;;35.14;27.38
76519;BME280;67029;51.054;13.798;2023-07-24T09:08:43;99215.92;;;35.21;26.43
76519;BME280;67029;51.054;13.798;2023-07-24T09:11:14;99215.83;;;34.94;26.37
76519;BME280;67029;51.054;13.798;2023-07-24T09:13:44;99216.88;;;34.87;26.71
76519;BME280;67029;51.054;13.798;2023-07-24T09:16:24;99223.71;;;35.02;26.81
76519;BME280;67029;51.054;13.798;2023-07-24T09:18:45;99223.66;;;35.28;26.79
76519;BME280;67029;51.054;13.798;2023-07-24T09:21:15;99224.72;;;35.52;26.63
76519;BME280;67029;51.054;13.798;2023-07-24T09:23:45;99221.77;;;35.76;26.66
76519;BME280;67029;51.054;13.798;2023-07-24T09:26:15;99218.30;;;35.98;26.57
76519;BME280;67029;51.054;13.798;2023-07-24T09:28:53;99212.34;;;36.12;26.40
76519;BME280;67029;51.054;13.798;2023-07-24T09:31:15;99211.17;;;36.18;26.33
76519;BME280;67029;51.054;13.798;2023-07-24T09:33:45;99220.08;;;36.20;26.22
76519;BME280;67029;51.054;13.798;2023-07-24T09:36:15;99216.84;;;36.18;26.12
76519;BME280;67029;51.054;13.798;2023-07-24T09:38:45;99215.48;;;36.06;26.09
76519;BME280;67029;51.054;13.798;2023-07-24T09:41:15;99228.16;;;35.99;26.09
76519;BME280;67029;51.054;13.798;2023-07-24T09:43:45;99222.97;;;35.84;26.08
76519;BME280;67029;51.054;13.798;2023-07-24T09:46:15;99226.31;;;35.74;26.20
76519;BME280;67029;51.054;13.798;2023-07-24T09:48:46;99217.94;;;35.58;26.31
76519;BME280;67029;51.054;13.798;2023-07-24T09:51:16;99215.03;;;35.54;26.45
76519;BME280;67029;51.054;13.798;2023-07-24T09:53:52;99216.80;;;35.48;26.47
76519;BME280;67029;51.054;13.798;2023-07-24T09:56:18;99217.81;;;35.36;26.66
76519;BME280;67029;51.054;13.798;2023-07-24T09:58:47;99216.69;;;35.10;26.64
76519;BME280;67029;51.054;13.798;2023-07-24T10:01:17;99210.27;;;34.95;26.72
76519;BME280;67029;51.054;13.798;2023-07-24T10:03:48;99211.30;;;34.80;27.03
76519;BME280;67029;51.054;13.798;2023-07-24T10:06:17;99205.58;;;34.63;26.98
76519;BME280;67029;51.054;13.798;2023-07-24T10:08:48;99205.52;;;34.48;27.04
76519;BME280;67029;51.054;13.798;2023-07-24T10:11:29;99194.16;;;34.33;27.15
76519;BME280;67029;51.054;13.798;2023-07-24T10:13:53;99200.00;;;34.26;27.22
76519;BME280;67029;51.054;13.798;2023-07-24T10:16:20;99198.13;;;34.32;27.30
76519;BME280;67029;51.054;13.798;2023-07-24T10:19:01;99207.13;;;34.33;27.07
76519;BME280;67029;51.054;13.798;2023-07-24T10:21:28;99204.66;;;34.19;27.24
76519;BME280;67029;51.054;13.798;2023-07-24T10:23:52;99198.41;;;33.99;27.38
76519;BME280;67029;51.054;13.798;2023-07-24T10:26:25;99200.69;;;33.99;27.51
76519;BME280;67029;51.054;13.798;2023-07-24T10:28:52;99201.69;;;34.04;27.58
76519;BME280;67029;51.054;13.798;2023-07-24T10:31:23;99195.02;;;33.96;27.71
76519;BME280;67029;51.054;13.798;2023-07-24T10:33:52;99202.14;;;33.89;27.83
76519;BME280;67029;51.054;13.798;2023-07-24T10:36:22;99209.13;;;33.71;27.91
76519;BME280;67029;51.054;13.798;2023-07-24T10:38:54;99216.91;;;33.44;28.01
76519;BME280;67029;51.054;13.798;2023-07-24T10:41:37;99225.98;;;33.19;28.35
76519;BME280;67029;51.054;13.798;2023-07-24T10:43:59;99213.86;;;33.00;28.80
76519;BME280;67029;51.054;13.798;2023-07-24T10:46:23;99206.77;;;32.88;29.19
76519;BME280;67029;51.054;13.798;2023-07-24T10:48:53;99203.27;;;32.72;29.57
76519;BME280;67029;51.054;13.798;2023-07-24T10:51:23;99200.35;;;32.60;29.75
76519;BME280;67029;51.054;13.798;2023-07-24T10:53:53;99205.66;;;32.54;30.05
76519;BME280;67029;51.054;13.798;2023-07-24T10:56:23;99217.66;;;32.33;30.40
76519;BME280;67029;51.054;13.798;2023-07-24T10:58:53;99218.64;;;32.15;30.65
76519;BME280;67029;51.054;13.798;2023-07-24T11:01:23;99220.20;;;31.97;30.85
76519;BME280;67029;51.054;13.798;2023-07-24T11:03:54;99217.12;;;31.87;31.60
76519;BME280;67029;51.054;13.798;2023-07-24T11:06:25;99212.42;;;31.76;32.28
76519;BME280;67029;51.054;13.798;2023-07-24T11:08:56;99205.41;;;31.64;32.32
76519;BME280;67029;51.054;13.798;2023-07-24T11:11:34;99207.77;;;31.56;32.55
76519;BME280;67029;51.054;13.798;2023-07-24T11:13:59;99198.89;;;31.55;32.61
76519;BME280;67029;51.054;13.798;2023-07-24T11:16:26;99193.16;;;31.59;32.64
76519;BME280;67029;51.054;13.798;2023-07-24T11:18:56;99183.89;;;31.67;32.69
76519;BME280;67029;51.054;13.798;2023-07-24T11:21:26;99179.33;;;31.70;33.15
76519;BME280;67029;51.054;13.798;2023-07-24T11:23:56;99174.38;;;31.69;33.28
76519;BME280;67029;51.054;13.798;2023-07-24T11:26:26;99170.86;;;31.59;33.36
76519;BME280;67029;51.054;13.798;2023-07-24T11:28:56;99164.00;;;31.59;33.65
76519;BME280;67029;51.054;13.798;2023-07-24T11:31:26;99164.25;;;31.45;33.61
76519;BME280;67029;51.054;13.798;2023-07-24T11:33:57;99164.66;;;31.48;33.51
76519;BME280;67029;51.054;13.798;2023-07-24T11:36:27;99156.61;;;31.43;33.49
76519;BME280;67029;51.054;13.798;2023-07-24T11:38:57;99152.86;;;31.30;33.65
76519;BME280;67029;51.054;13.798;2023-07-24T11:41:27;99147.11;;;31.36;33.66
76519;BME280;67029;51.054;13.798;2023-07-24T11:43:57;99139.55;;;31.33;33.57
76519;BME280;67029;51.054;13.798;2023-07-24T11:46:28;99139.34;;;31.30;33.51
76519;BME280;67029;51.054;13.798;2023-07-24T11:48:57;99137.97;;;31.37;33.39
76519;BME280;67029;51.054;13.798;2023-07-24T11:51:27;99137.59;;;31.32;33.44
76519;BME280;67029;51.054;13.798;2023-07-24T11:54:04;99129.91;;;31.21;33.50
76519;BME280;67029;51.054;13.798;2023-07-24T11:56:29;99124.66;;;31.21;33.47
76519;BME280;67029;51.054;13.798;2023-07-24T11:59:12;99129.08;;;31.26;33.55
76519;BME280;67029;51.054;13.798;2023-07-24T12:01:29;99130.79;;;31.17;33.76
76519;BME280;67029;51.054;13.798;2023-07-24T12:03:59;99129.83;;;31.14;33.78
76519;BME280;67029;51.054;13.798;2023-07-24T12:06:30;99128.11;;;31.09;33.88
76519;BME280;67029;51.054;13.798;2023-07-24T12:09:03;99123.14;;;31.15;33.89
76519;BME280;67029;51.054;13.798;2023-07-24T12:11:30;99117.79;;;31.27;33.78
76519;BME280;67029;51.054;13.798;2023-07-24T12:14:00;99112.26;;;31.28;33.75
76519;BME280;67029;51.054;13.798;2023-07-24T12:16:33;99110.11;;;31.28;33.88
76519;BME280;67029;51.054;13.798;2023-07-24T12:19:01;99103.86;;;31.20;33.87
76519;BME280;67029;51.054;13.798;2023-07-24T12:21:31;99105.50;;;31.28;33.75
76519;BME280;67029;51.054;13.798;2023-07-24T12:24:04;99107.89;;;31.33;33.83
76519;BME280;67029;51.054;13.798;2023-07-24T12:26:31;99105.89;;;31.30;33.87
76519;BME280;67029;51.054;13.798;2023-07-24T12:29:01;99107.86;;;31.32;33.86
76519;BME280;67029;51.054;13.798;2023-07-24T12:31:31;99108.97;;;31.29;33.98
76519;BME280;67029;51.054;13.798;2023-07-24T12:34:01;99113.03;;;31.22;34.07
76519;BME280;67029;51.054;13.798;2023-07-24T12:36:31;99118.95;;;31.12;34.31
76519;BME280;67029;51.054;13.798;2023-07-24T12:39:01;99124.03;;;31.08;34.39
76519;BME280;67029;51.054;13.798;2023-07-24T12:41:31;99121.74;;;31.05;34.51
76519;BME280;67029;51.054;13.798;2023-07-24T12:44:01;99130.11;;;30.96;34.67
76519;BME280;67029;51.054;13.798;2023-07-24T12:46:31;99137.00;;;30.78;35.10
76519;BME280;67029;51.054;13.798;2023-07-24T12:49:01;99149.98;;;30.59;35.10
76519;BME280;67029;51.054;13.798;2023-07-24T12:51:31;99149.23;;;30.44;35.06
76519;BME280;67029;51.054;13.798;2023-07-24T12:54:01;99160.56;;;30.29;35.27
76519;BME280;67029;51.054;13.798;2023-07-24T12:56:31;99169.82;;;29.99;35.70
76519;BME280;67029;51.054;13.798;2023-07-24T12:59:02;99176.25;;;29.75;36.62
76519;BME280;67029;51.054;13.798;2023-07-24T13:01:32;99168.88;;;29.53;37.59
76519;BME280;67029;51.054;13.798;2023-07-24T13:04:02;99164.44;;;29.28;38.58
76519;BME280;67029;51.054;13.798;2023-07-24T13:06:32;99150.99;;;28.97;39.58